createdAt,value
2023-04-18T00:01:55.627Z,101842.13
2023-04-18T00:04:23.060Z,101842.97
2023-04-18T00:06:51.648Z,101841.81
2023-04-18T00:09:18.920Z,101838.00
2023-04-18T00:11:47.986Z,101845.41
2023-04-18T00:14:16.274Z,101841.69
2023-04-18T00:16:43.511Z,101844.34
2023-04-18T00:19:10.835Z,101844.41
2023-04-18T00:21:38.451Z,101842.34
2023-04-18T00:24:06.409Z,101853.34
2023-04-18T00:26:33.717Z,101845.81
2023-04-18T00:29:03.269Z,101841.59
2023-04-18T00:31:30.560Z,101848.78
2023-04-18T00:33:57.761Z,101852.00
2023-04-18T00:36:25.383Z,101837.78
2023-04-18T00:38:52.623Z,101839.50
2023-04-18T00:41:20.830Z,101831.47
2023-04-18T00:43:48.595Z,101828.66
2023-04-18T00:46:18.039Z,101831.97
2023-04-18T00:48:45.777Z,101834.56
2023-04-18T00:51:14.006Z,101833.03
2023-04-18T00:53:41.911Z,101830.06
2023-04-18T00:56:09.837Z,101838.91
2023-04-18T00:58:37.750Z,101830.88
2023-04-18T01:01:06.109Z,101838.81
2023-04-18T01:03:36.141Z,101839.81
2023-04-18T01:06:03.844Z,101832.66
2023-04-18T01:08:31.741Z,101829.25
2023-04-18T01:10:59.423Z,101826.22
2023-04-18T01:13:26.639Z,101826.63
2023-04-18T01:15:54.068Z,101833.47
2023-04-18T01:18:21.751Z,101831.69
2023-04-18T01:20:52.079Z,101836.78
2023-04-18T01:23:20.961Z,101836.63
2023-04-18T01:25:50.360Z,101833.34
2023-04-18T01:28:19.784Z,101839.19
2023-04-18T01:30:46.580Z,101838.94
2023-04-18T01:33:14.322Z,101846.09
2023-04-18T01:35:41.813Z,101836.34
2023-04-18T01:38:09.309Z,101844.44
2023-04-18T01:40:36.880Z,101840.16
2023-04-18T01:43:06.228Z,101844.00
2023-04-18T01:45:33.559Z,101840.84
2023-04-18T01:48:01.125Z,101837.81
2023-04-18T01:50:28.678Z,101832.38
2023-04-18T01:52:57.328Z,101835.06
2023-04-18T01:55:24.781Z,101838.81
2023-04-18T01:57:52.066Z,101827.19
2023-04-18T02:00:22.113Z,101829.31
2023-04-18T02:02:49.585Z,101815.69
2023-04-18T02:05:17.241Z,101819.56
2023-04-18T02:07:45.025Z,101823.16
2023-04-18T02:10:12.928Z,101833.03
2023-04-18T02:12:41.197Z,101825.56
2023-04-18T02:15:09.833Z,101825.88
2023-04-18T02:17:38.936Z,101825.16
2023-04-18T02:20:07.850Z,101824.44
2023-04-18T02:22:36.553Z,101840.16
2023-04-18T02:25:03.826Z,101829.28
2023-04-18T02:27:31.445Z,101829.84
2023-04-18T02:29:59.171Z,101833.00
2023-04-18T02:32:26.691Z,101834.28
2023-04-18T02:34:56.293Z,101835.84
2023-04-18T02:37:23.713Z,101831.97
2023-04-18T02:39:52.001Z,101841.72
2023-04-18T02:42:19.739Z,101839.66
2023-04-18T02:44:47.198Z,101837.56
2023-04-18T02:47:15.300Z,101842.72
2023-04-18T02:49:42.934Z,101841.44
2023-04-18T02:52:11.796Z,101840.50
2023-04-18T02:54:39.337Z,101850.31
2023-04-18T02:57:07.136Z,101854.59
2023-04-18T02:59:34.945Z,101840.50
2023-04-18T03:02:02.557Z,101842.34
2023-04-18T03:04:30.051Z,101855.94
2023-04-18T03:06:57.748Z,101851.53
2023-04-18T03:09:27.875Z,101849.22
2023-04-18T03:11:55.296Z,101848.66
2023-04-18T03:14:23.124Z,101846.72
2023-04-18T03:16:52.389Z,101856.88
2023-04-18T03:19:21.766Z,101854.00
2023-04-18T03:21:49.510Z,101858.53
2023-04-18T03:24:17.462Z,101850.63
2023-04-18T03:26:47.023Z,101858.69
2023-04-18T03:29:14.752Z,101856.94
2023-04-18T03:31:43.275Z,101857.56
2023-04-18T03:34:11.096Z,101858.00
2023-04-18T03:36:38.790Z,101852.63
2023-04-18T03:39:06.645Z,101856.06
2023-04-18T03:41:34.043Z,101866.09
2023-04-18T03:44:04.205Z,101860.72
2023-04-18T03:46:31.913Z,101862.16
2023-04-18T03:48:59.023Z,101860.28
2023-04-18T03:51:27.322Z,101860.03
2023-04-18T03:53:54.953Z,101864.31
2023-04-18T03:56:22.025Z,101871.94
2023-04-18T03:58:50.335Z,101865.88
2023-04-18T04:01:19.793Z,101864.47
2023-04-18T04:03:50.092Z,101866.63
2023-04-18T04:06:17.818Z,101862.34
2023-04-18T04:08:46.442Z,101846.53
2023-04-18T04:11:14.495Z,101859.41
2023-04-18T04:13:41.890Z,101854.66
2023-04-18T04:16:08.972Z,101850.94
2023-04-18T04:18:38.484Z,101856.13
2023-04-18T04:21:06.971Z,101857.00
2023-04-18T04:23:34.532Z,101850.72
2023-04-18T04:26:02.008Z,101854.56
2023-04-18T04:28:30.136Z,101852.63
2023-04-18T04:30:58.246Z,101847.50
2023-04-18T04:33:26.117Z,101843.13
2023-04-18T04:35:56.112Z,101849.13
2023-04-18T04:38:24.155Z,101846.84
2023-04-18T04:40:51.833Z,101838.31
2023-04-18T04:43:20.680Z,101845.34
2023-04-18T04:45:49.481Z,101845.66
2023-04-18T04:48:17.645Z,101841.63
2023-04-18T04:50:52.626Z,101849.69
2023-04-18T04:53:21.863Z,101850.56
2023-04-18T04:55:49.712Z,101847.97
2023-04-18T04:58:16.567Z,101849.56
2023-04-18T05:00:44.220Z,101841.94
2023-04-18T05:03:11.637Z,101838.06
2023-04-18T05:05:39.385Z,101848.78
2023-04-18T05:08:07.971Z,101848.69
2023-04-18T05:10:37.197Z,101852.50
2023-04-18T05:13:04.970Z,101862.34
2023-04-18T05:15:34.252Z,101858.63
2023-04-18T05:18:01.408Z,101856.28
2023-04-18T05:20:28.905Z,101857.53
2023-04-18T05:22:56.932Z,101863.44
2023-04-18T05:25:24.837Z,101860.25
2023-04-18T05:27:54.575Z,101866.78
2023-04-18T05:30:22.494Z,101875.34
2023-04-18T05:32:50.121Z,101877.16
2023-04-18T05:35:17.916Z,101872.16
2023-04-18T05:37:46.447Z,101880.25
2023-04-18T05:40:14.902Z,101874.59
2023-04-18T05:42:42.578Z,101879.50
2023-04-18T05:45:12.940Z,101877.06
2023-04-18T05:47:40.913Z,101889.69
2023-04-18T05:50:10.093Z,101883.69
2023-04-18T05:52:38.481Z,101892.03
2023-04-18T05:55:07.345Z,101893.44
2023-04-18T05:57:34.931Z,101892.34
2023-04-18T06:00:02.536Z,101889.69
2023-04-18T06:02:32.329Z,101890.00
2023-04-18T06:05:00.456Z,101898.19
2023-04-18T06:07:28.346Z,101895.91
2023-04-18T06:09:55.828Z,101887.84
2023-04-18T06:12:23.446Z,101898.75
2023-04-18T06:14:51.234Z,101900.84
2023-04-18T06:17:18.068Z,101902.06
2023-04-18T06:19:47.171Z,101902.81
2023-04-18T06:22:17.077Z,101894.25
2023-04-18T06:24:44.561Z,101901.44
2023-04-18T06:27:20.698Z,101904.81
2023-04-18T06:29:59.057Z,101903.09
2023-04-18T06:32:26.522Z,101897.75
2023-04-18T06:34:56.613Z,101903.22
2023-04-18T06:37:24.748Z,101902.41
2023-04-18T06:39:52.429Z,101909.69
2023-04-18T06:42:22.192Z,101919.81
2023-04-18T06:44:50.256Z,101911.81
2023-04-18T06:47:17.882Z,101915.59
2023-04-18T06:49:45.517Z,101914.19
2023-04-18T06:52:14.896Z,101912.13
2023-04-18T06:54:42.388Z,101913.97
2023-04-18T06:57:10.038Z,101925.69
2023-04-18T06:59:37.803Z,101912.56
2023-04-18T07:02:05.534Z,101922.13
2023-04-18T07:04:32.899Z,101919.75
2023-04-18T07:07:00.660Z,101924.69
2023-04-18T07:09:30.102Z,101927.75
2023-04-18T07:11:58.945Z,101921.75
2023-04-18T07:14:26.319Z,101927.91
2023-04-18T07:16:54.088Z,101925.28
2023-04-18T07:19:21.655Z,101934.00
2023-04-18T07:21:49.060Z,101941.41
2023-04-18T07:24:16.911Z,101946.53
2023-04-18T07:26:47.048Z,101951.47
2023-04-18T07:29:14.204Z,101961.00
2023-04-18T07:31:41.937Z,101957.38
2023-04-18T07:34:12.077Z,101943.88
2023-04-18T07:36:40.178Z,101952.97
2023-04-18T07:39:08.403Z,101954.94
2023-04-18T07:41:37.215Z,101951.16
2023-04-18T07:44:06.713Z,101960.88
2023-04-18T07:46:34.506Z,101954.06
2023-04-18T07:49:01.914Z,101950.22
2023-04-18T07:51:29.833Z,101941.84
2023-04-18T07:53:57.261Z,101947.75
2023-04-18T07:56:25.340Z,101944.09
2023-04-18T07:58:53.483Z,101942.91
2023-04-18T08:01:23.649Z,101940.72
2023-04-18T08:03:51.398Z,101944.25
2023-04-18T08:06:20.495Z,101947.31
2023-04-18T08:08:48.224Z,101955.34
2023-04-18T08:11:16.052Z,101946.56
2023-04-18T08:13:44.322Z,101939.44
2023-04-18T08:16:13.720Z,101934.97
2023-04-18T08:18:44.530Z,101935.56
2023-04-18T08:21:12.160Z,101932.34
2023-04-18T08:23:38.970Z,101935.06
2023-04-18T08:26:07.792Z,101942.53
2023-04-18T08:28:34.695Z,101940.56
2023-04-18T08:31:02.579Z,101926.19
2023-04-18T08:33:31.153Z,101923.44
2023-04-18T08:35:59.814Z,101924.03
2023-04-18T08:38:28.006Z,101919.59
2023-04-18T08:40:56.493Z,101926.25
2023-04-18T08:43:24.635Z,101927.31
2023-04-18T08:45:51.948Z,101925.78
2023-04-18T08:48:19.775Z,101929.84
2023-04-18T08:50:47.305Z,101927.41
2023-04-18T08:53:15.938Z,101928.44
2023-04-18T08:55:43.229Z,101925.59
2023-04-18T08:58:10.605Z,101927.44
2023-04-18T09:00:38.028Z,101925.72
2023-04-18T09:03:05.532Z,101927.34
2023-04-18T09:05:32.868Z,101929.78
2023-04-18T09:08:20.810Z,101937.75
2023-04-18T09:10:50.100Z,101940.97
2023-04-18T09:13:40.863Z,101942.75
2023-04-18T09:16:08.862Z,101937.56
2023-04-18T09:18:35.750Z,101941.72
2023-04-18T09:21:16.812Z,101937.63
2023-04-18T09:23:43.713Z,101933.31
2023-04-18T09:26:13.823Z,101935.88
2023-04-18T09:28:40.768Z,101930.19
2023-04-18T09:31:09.766Z,101925.34
2023-04-18T09:33:37.863Z,101930.25
2023-04-18T09:36:18.314Z,101926.22
2023-04-18T09:38:45.340Z,101918.09
2023-04-18T09:41:21.532Z,101923.00
2023-04-18T09:43:49.012Z,101920.63
2023-04-18T09:46:16.598Z,101918.31
2023-04-18T09:48:44.098Z,101923.81
2023-04-18T09:51:14.460Z,101920.72
2023-04-18T09:53:43.576Z,101925.22
2023-04-18T09:56:19.978Z,101917.63
2023-04-18T09:58:51.160Z,101912.13
2023-04-18T10:01:19.030Z,101921.44
2023-04-18T10:03:50.866Z,101909.31
2023-04-18T10:06:19.775Z,101910.81
2023-04-18T10:08:49.042Z,101909.97
2023-04-18T10:11:20.352Z,101901.28
2023-04-18T10:13:50.721Z,101907.19
2023-04-18T10:16:20.238Z,101898.94
2023-04-18T10:18:49.669Z,101900.97
2023-04-18T10:21:19.722Z,101897.47
2023-04-18T10:23:47.555Z,101895.59
2023-04-18T10:26:14.705Z,101895.84
2023-04-18T10:28:55.939Z,101895.44
2023-04-18T10:31:24.208Z,101890.81
2023-04-18T10:34:17.847Z,101897.75
2023-04-18T10:37:05.147Z,101884.44
2023-04-18T10:39:48.457Z,101883.84
2023-04-18T10:42:16.064Z,101889.56
2023-04-18T10:45:19.062Z,101891.69
2023-04-18T10:47:46.148Z,101881.72
2023-04-18T10:50:15.523Z,101881.28
2023-04-18T10:52:43.638Z,101878.53
2023-04-18T10:55:19.521Z,101869.59
2023-04-18T10:57:49.481Z,101873.81
2023-04-18T11:00:19.898Z,101884.53
2023-04-18T11:02:54.750Z,101877.22
2023-04-18T11:05:27.843Z,101877.28
2023-04-18T11:07:55.830Z,101869.53
2023-04-18T11:10:25.562Z,101869.84
2023-04-18T11:12:55.614Z,101874.09
2023-04-18T11:15:28.586Z,101866.31
2023-04-18T11:17:59.119Z,101862.78
2023-04-18T11:20:27.243Z,101854.50
2023-04-18T11:22:56.515Z,101854.31
2023-04-18T11:25:26.346Z,101864.09
2023-04-18T11:27:54.142Z,101840.84
2023-04-18T11:30:21.840Z,101848.25
2023-04-18T11:32:51.328Z,101842.16
2023-04-18T11:35:19.536Z,101837.19
2023-04-18T11:37:46.917Z,101835.63
2023-04-18T11:40:14.394Z,101838.03
2023-04-18T11:42:42.380Z,101830.50
2023-04-18T11:45:11.282Z,101839.78
2023-04-18T11:47:39.536Z,101837.50
2023-04-18T11:50:10.042Z,101832.41
2023-04-18T11:52:38.250Z,101834.31
2023-04-18T11:55:14.357Z,101840.00
2023-04-18T11:57:43.518Z,101826.63
2023-04-18T12:00:12.019Z,101841.09
2023-04-18T12:02:43.978Z,101828.78
2023-04-18T12:05:25.777Z,101829.75
2023-04-18T12:07:55.001Z,101830.47
2023-04-18T12:10:28.510Z,101836.22
2023-04-18T12:12:58.784Z,101818.50
2023-04-18T12:15:27.758Z,101826.38
2023-04-18T12:17:59.054Z,101821.03
2023-04-18T12:20:34.361Z,101814.34
2023-04-18T12:23:02.173Z,101827.22
2023-04-18T12:25:30.645Z,101828.44
2023-04-18T12:27:59.442Z,101821.53
2023-04-18T12:30:28.647Z,101807.38
2023-04-18T12:32:58.072Z,101816.41
2023-04-18T12:35:27.393Z,101807.31
2023-04-18T12:38:00.229Z,101799.06
2023-04-18T12:40:28.406Z,101798.53
2023-04-18T12:42:58.845Z,101814.78
2023-04-18T12:45:27.640Z,101800.78
2023-04-18T12:47:55.622Z,101799.44
2023-04-18T12:50:25.485Z,101798.41
2023-04-18T12:52:54.398Z,101806.25
2023-04-18T12:55:24.450Z,101790.97
2023-04-18T12:57:53.388Z,101791.22
2023-04-18T13:00:21.948Z,101800.13
2023-04-18T13:02:50.377Z,101800.28
2023-04-18T13:05:19.494Z,101784.84
2023-04-18T13:07:48.140Z,101795.31
2023-04-18T13:10:18.260Z,101794.78
2023-04-18T13:12:48.071Z,101788.84
2023-04-18T13:15:15.744Z,101787.16
2023-04-18T13:17:44.909Z,101787.78
2023-04-18T13:20:13.644Z,101788.38
2023-04-18T13:22:43.337Z,101785.34
2023-04-18T13:25:11.827Z,101792.84
2023-04-18T13:27:41.797Z,101783.50
2023-04-18T13:30:12.138Z,101783.97
2023-04-18T13:32:39.640Z,101776.69
2023-04-18T13:35:09.007Z,101766.34
2023-04-18T13:37:36.908Z,101771.16
2023-04-18T13:40:05.569Z,101773.72
2023-04-18T13:42:33.150Z,101770.97
2023-04-18T13:45:00.487Z,101768.69
2023-04-18T13:47:30.226Z,101763.38
2023-04-18T13:49:57.644Z,101762.47
2023-04-18T13:52:25.453Z,101761.69
2023-04-18T13:54:53.446Z,101755.06
2023-04-18T13:57:20.901Z,101763.19
2023-04-18T13:59:48.801Z,101748.25
2023-04-18T14:02:16.877Z,101756.72
2023-04-18T14:04:45.971Z,101753.47
2023-04-18T14:07:13.411Z,101758.81
2023-04-18T14:09:41.066Z,101756.53
2023-04-18T14:12:09.113Z,101751.69
2023-04-18T14:14:36.776Z,101750.63
2023-04-18T14:17:04.416Z,101746.94
2023-04-18T14:19:31.944Z,101752.66
2023-04-18T14:22:01.786Z,101760.53
2023-04-18T14:24:29.109Z,101750.41
2023-04-18T14:26:56.710Z,101739.59
2023-04-18T14:29:24.411Z,101737.28
2023-04-18T14:31:51.557Z,101736.88
2023-04-18T14:34:19.126Z,101727.66
2023-04-18T14:36:46.912Z,101743.81
2023-04-18T14:39:16.730Z,101730.84
2023-04-18T14:41:44.339Z,101733.34
2023-04-18T14:44:11.984Z,101731.00
2023-04-18T14:46:39.915Z,101725.03
2023-04-18T14:49:07.554Z,101731.94
2023-04-18T14:51:35.279Z,101736.00
2023-04-18T14:54:03.812Z,101726.66
2023-04-18T14:56:32.630Z,101710.28
2023-04-18T14:59:00.314Z,101706.69
2023-04-18T15:01:27.040Z,101721.16
2023-04-18T15:03:55.187Z,101700.06
2023-04-18T15:06:22.444Z,101706.06
2023-04-18T15:08:50.698Z,101722.97
2023-04-18T15:11:18.282Z,101710.97
2023-04-18T15:13:47.984Z,101725.22
2023-04-18T15:16:15.929Z,101712.19
2023-04-18T15:18:43.756Z,101705.75
2023-04-18T15:21:11.451Z,101702.16
2023-04-18T15:23:40.569Z,101713.44
2023-04-18T15:26:08.813Z,101711.31
2023-04-18T15:28:36.797Z,101714.50
2023-04-18T15:31:06.682Z,101702.03
2023-04-18T15:33:34.562Z,101694.41
2023-04-18T15:36:01.926Z,101702.09
2023-04-18T15:38:31.532Z,101696.22
2023-04-18T15:41:00.464Z,101690.31
2023-04-18T15:43:28.111Z,101682.38
2023-04-18T15:45:55.507Z,101682.97
2023-04-18T15:48:24.625Z,101679.47
2023-04-18T15:50:52.504Z,101700.53
2023-04-18T15:53:20.363Z,101699.88
2023-04-18T15:55:48.188Z,101690.03
2023-04-18T15:58:15.600Z,101672.66
2023-04-18T16:00:43.084Z,101691.41
2023-04-18T16:03:11.758Z,101685.84
2023-04-18T16:05:41.101Z,101675.91
2023-04-18T16:08:08.733Z,101676.91
2023-04-18T16:10:36.297Z,101667.72
2023-04-18T16:13:03.963Z,101674.34
2023-04-18T16:15:32.069Z,101665.53
2023-04-18T16:18:00.243Z,101673.88
2023-04-18T16:20:27.551Z,101672.59
2023-04-18T16:22:56.274Z,101680.16
2023-04-18T16:25:24.063Z,101671.50
2023-04-18T16:27:51.918Z,101676.13
2023-04-18T16:30:19.354Z,101662.00
2023-04-18T16:32:47.574Z,101661.78
2023-04-18T16:35:15.287Z,101667.34
2023-04-18T16:37:42.682Z,101665.06
2023-04-18T16:40:12.734Z,101663.09
2023-04-18T16:42:40.408Z,101665.38
2023-04-18T16:45:08.749Z,101663.63
2023-04-18T16:47:36.585Z,101656.56
2023-04-18T16:50:04.259Z,101672.16
2023-04-18T16:52:32.340Z,101670.84
2023-04-18T16:55:00.091Z,101674.81
2023-04-18T16:57:29.415Z,101677.06
2023-04-18T16:59:56.920Z,101675.25
2023-04-18T17:02:24.830Z,101674.56
2023-04-18T17:04:52.362Z,101677.03
2023-04-18T17:07:20.040Z,101677.38
2023-04-18T17:09:47.137Z,101681.41
2023-04-18T17:12:14.579Z,101672.56
2023-04-18T17:14:43.619Z,101693.53
2023-04-18T17:17:11.200Z,101684.31
2023-04-18T17:19:39.479Z,101682.44
2023-04-18T17:22:07.011Z,101687.81
2023-04-18T17:24:34.426Z,101679.66
2023-04-18T17:27:02.124Z,101678.88
2023-04-18T17:29:29.781Z,101676.53
2023-04-18T17:31:58.522Z,101684.41
2023-04-18T17:34:26.448Z,101683.19
2023-04-18T17:36:53.823Z,101688.16
2023-04-18T17:39:21.385Z,101680.78
2023-04-18T17:41:49.268Z,101664.09
2023-04-18T17:44:16.740Z,101665.16
2023-04-18T17:46:44.178Z,101674.41
2023-04-18T17:49:13.433Z,101675.44
2023-04-18T17:51:40.860Z,101678.69
2023-04-18T17:54:08.533Z,101668.47
2023-04-18T17:56:36.114Z,101672.75
2023-04-18T17:59:03.817Z,101672.84
2023-04-18T18:01:33.097Z,101667.91
2023-04-18T18:04:01.020Z,101675.88
2023-04-18T18:06:30.784Z,101675.56
2023-04-18T18:08:58.031Z,101675.09
2023-04-18T18:11:26.174Z,101676.34
2023-04-18T18:13:53.719Z,101672.00
2023-04-18T18:16:21.661Z,101675.13
2023-04-18T18:18:49.476Z,101667.63
2023-04-18T18:21:17.162Z,101666.03
2023-04-18T18:23:46.829Z,101666.94
2023-04-18T18:26:14.433Z,101678.88
2023-04-18T18:28:42.099Z,101669.34
2023-04-18T18:31:09.704Z,101674.44
2023-04-18T18:33:36.959Z,101672.75
2023-04-18T18:36:05.031Z,101675.81
2023-04-18T18:38:32.982Z,101669.34
2023-04-18T18:41:03.811Z,101684.16
2023-04-18T18:43:32.919Z,101680.56
2023-04-18T18:46:00.385Z,101673.56
2023-04-18T18:48:27.998Z,101677.16
2023-04-18T18:50:55.579Z,101682.38
2023-04-18T18:53:23.297Z,101676.13
2023-04-18T18:55:50.914Z,101676.59
2023-04-18T18:58:20.204Z,101677.13
2023-04-18T19:00:48.239Z,101672.69
2023-04-18T19:03:16.075Z,101681.59
2023-04-18T19:05:43.488Z,101679.34
2023-04-18T19:08:10.854Z,101675.50
2023-04-18T19:10:38.657Z,101681.50
2023-04-18T19:13:06.031Z,101683.91
2023-04-18T19:15:36.376Z,101685.97
2023-04-18T19:18:04.236Z,101691.44
2023-04-18T19:20:31.841Z,101691.06
2023-04-18T19:22:59.294Z,101693.84
2023-04-18T19:25:26.812Z,101691.44
2023-04-18T19:27:54.034Z,101689.25
2023-04-18T19:30:21.464Z,101701.00
2023-04-18T19:32:51.213Z,101702.72
2023-04-18T19:35:18.831Z,101700.00
2023-04-18T19:37:47.674Z,101707.69
2023-04-18T19:40:15.637Z,101708.38
2023-04-18T19:42:43.292Z,101715.03
2023-04-18T19:45:11.937Z,101719.78
2023-04-18T19:47:41.374Z,101722.69
2023-04-18T19:50:12.224Z,101712.25
2023-04-18T19:52:40.112Z,101712.44
2023-04-18T19:55:08.911Z,101723.03
2023-04-18T19:57:38.081Z,101724.50
2023-04-18T20:00:07.556Z,101717.53
2023-04-18T20:02:34.935Z,101711.75
2023-04-18T20:05:02.717Z,101709.81
2023-04-18T20:07:32.892Z,101712.59
2023-04-18T20:09:59.942Z,101710.91
2023-04-18T20:12:27.058Z,101714.00
2023-04-18T20:14:55.589Z,101715.22
2023-04-18T20:17:23.327Z,101713.88
2023-04-18T20:19:51.043Z,101703.28
2023-04-18T20:22:19.716Z,101715.88
2023-04-18T20:24:49.437Z,101717.72
2023-04-18T20:27:17.010Z,101720.50
2023-04-18T20:29:44.949Z,101719.13
2023-04-18T20:32:12.394Z,101722.19
2023-04-18T20:34:40.045Z,101723.31
2023-04-18T20:37:07.734Z,101723.28
2023-04-18T20:39:35.325Z,101718.13
2023-04-18T20:42:04.833Z,101720.03
2023-04-18T20:44:33.557Z,101722.81
2023-04-18T20:47:00.938Z,101708.50
2023-04-18T20:49:28.615Z,101720.25
2023-04-18T20:51:56.503Z,101724.00
2023-04-18T20:54:24.260Z,101720.84
2023-04-18T20:56:51.960Z,101717.06
2023-04-18T20:59:21.475Z,101716.84
2023-04-18T21:01:49.596Z,101710.84
2023-04-18T21:04:17.408Z,101712.28
2023-04-18T21:06:45.053Z,101715.72
2023-04-18T21:09:11.937Z,101713.88
2023-04-18T21:11:39.325Z,101717.00
2023-04-18T21:14:07.697Z,101709.25
2023-04-18T21:16:36.427Z,101718.66
2023-04-18T21:19:04.150Z,101719.44
2023-04-18T21:21:31.837Z,101716.72
2023-04-18T21:23:59.516Z,101719.03
2023-04-18T21:26:26.991Z,101720.19
2023-04-18T21:28:58.989Z,101734.56
2023-04-18T21:31:28.414Z,101727.25
2023-04-18T21:33:58.877Z,101730.94
2023-04-18T21:36:26.862Z,101729.09
2023-04-18T21:38:55.357Z,101732.63
2023-04-18T21:41:23.795Z,101731.59
2023-04-18T21:43:52.036Z,101730.09
2023-04-18T21:46:19.718Z,101736.13
2023-04-18T21:48:49.040Z,101738.50
2023-04-18T21:51:18.153Z,101733.34
2023-04-18T21:53:46.118Z,101738.28
2023-04-18T21:56:13.758Z,101733.81
2023-04-18T21:58:41.283Z,101735.41
2023-04-18T22:01:09.094Z,101739.72
2023-04-18T22:03:37.132Z,101736.22
2023-04-18T22:06:04.783Z,101733.81
2023-04-18T22:08:34.643Z,101741.19
2023-04-18T22:11:02.249Z,101731.00
2023-04-18T22:13:30.343Z,101739.09
2023-04-18T22:15:57.898Z,101742.56
2023-04-18T22:18:25.347Z,101734.81
2023-04-18T22:20:53.091Z,101739.00
2023-04-18T22:23:20.298Z,101745.63
2023-04-18T22:25:49.803Z,101748.88
2023-04-18T22:28:17.205Z,101744.06
2023-04-18T22:30:45.336Z,101733.97
2023-04-18T22:33:12.936Z,101733.97
2023-04-18T22:35:40.620Z,101738.66
2023-04-18T22:38:08.045Z,101736.75
2023-04-18T22:40:36.468Z,101743.84
2023-04-18T22:43:05.419Z,101732.41
2023-04-18T22:45:34.057Z,101735.38
2023-04-18T22:48:01.477Z,101743.81
2023-04-18T22:50:28.359Z,101732.72
2023-04-18T22:52:56.885Z,101739.34
2023-04-18T22:55:25.225Z,101737.72
2023-04-18T22:57:52.597Z,101732.81
2023-04-18T23:00:22.220Z,101736.06
2023-04-18T23:02:49.879Z,101739.66
2023-04-18T23:05:17.212Z,101731.13
2023-04-18T23:07:44.729Z,101728.97
2023-04-18T23:10:12.638Z,101736.22
2023-04-18T23:12:40.838Z,101741.59
2023-04-18T23:15:08.973Z,101736.34
2023-04-18T23:17:37.855Z,101736.53
2023-04-18T23:20:06.201Z,101742.94
2023-04-18T23:22:34.189Z,101734.53
2023-04-18T23:25:01.584Z,101734.50
2023-04-18T23:27:28.962Z,101730.91
2023-04-18T23:29:56.651Z,101733.28
2023-04-18T23:32:24.808Z,101735.22
2023-04-18T23:34:53.852Z,101726.56
2023-04-18T23:37:21.336Z,101726.09
2023-04-18T23:39:49.418Z,101723.78
2023-04-18T23:42:17.080Z,101723.22
2023-04-18T23:44:44.664Z,101728.44
2023-04-18T23:47:12.120Z,101722.53
2023-04-18T23:49:40.258Z,101717.69
2023-04-18T23:52:09.532Z,101714.03
2023-04-18T23:54:37.059Z,101716.56
2023-04-18T23:57:04.560Z,101718.09
2023-04-18T23:59:31.861Z,101709.22
